createdAt,value
2019-05-05T00:02:22.217Z,100.00
2019-05-05T00:07:27.438Z,100.00
2019-05-05T00:12:31.622Z,100.00
2019-05-05T00:17:35.947Z,100.00
2019-05-05T00:22:40.272Z,100.00
2019-05-05T00:27:45.240Z,100.00
2019-05-05T00:32:49.858Z,100.00
2019-05-05T00:42:59.320Z,100.00
2019-05-05T00:48:04.732Z,100.00
2019-05-05T00:53:09.899Z,100.00
2019-05-05T00:58:14.975Z,100.00
2019-05-05T01:03:20.040Z,100.00
2019-05-05T01:08:25.902Z,100.00
2019-05-05T01:13:31.018Z,100.00
2019-05-05T01:18:35.970Z,100.00
2019-05-05T01:23:41.088Z,100.00
2019-05-05T01:28:45.422Z,100.00
2019-05-05T01:33:50.659Z,100.00
2019-05-05T01:38:56.066Z,100.00
2019-05-05T01:44:01.485Z,100.00
2019-05-05T01:49:05.936Z,100.00
2019-05-05T01:54:11.400Z,100.00
2019-05-05T01:59:16.975Z,100.00
2019-05-05T02:04:21.553Z,100.00
2019-05-05T02:09:27.329Z,100.00
2019-05-05T02:14:32.327Z,100.00
2019-05-05T02:19:38.706Z,100.00
2019-05-05T02:24:44.595Z,100.00
2019-05-05T02:29:50.142Z,100.00
2019-05-05T02:34:56.515Z,100.00
2019-05-05T02:40:06.558Z,100.00
2019-05-05T02:45:08.133Z,100.00
2019-05-05T02:50:15.574Z,100.00
2019-05-05T02:55:19.628Z,100.00
2019-05-05T03:00:24.710Z,100.00
2019-05-05T03:05:30.399Z,100.00
2019-05-05T03:10:36.695Z,100.00
2019-05-05T03:15:51.420Z,100.00
2019-05-05T03:21:04.427Z,100.00
2019-05-05T03:26:03.963Z,100.00
2019-05-05T03:31:08.946Z,100.00
2019-05-05T03:36:14.783Z,100.00
2019-05-05T03:41:19.174Z,100.00
2019-05-05T03:46:23.862Z,100.00
2019-05-05T03:51:29.857Z,100.00
2019-05-05T03:56:34.969Z,100.00
2019-05-05T04:01:39.636Z,100.00
2019-05-05T04:06:44.658Z,100.00
2019-05-05T04:11:49.769Z,100.00
2019-05-05T04:16:55.404Z,100.00
2019-05-05T04:22:00.647Z,100.00
2019-05-05T04:27:05.473Z,100.00
2019-05-05T04:32:11.166Z,100.00
2019-05-05T04:37:16.623Z,100.00
2019-05-05T04:42:24.548Z,100.00
2019-05-05T04:47:28.984Z,100.00
2019-05-05T04:52:34.435Z,100.00
2019-05-05T04:57:38.837Z,100.00
2019-05-05T05:02:43.837Z,100.00
2019-05-05T05:07:49.192Z,100.00
2019-05-05T05:12:54.650Z,100.00
2019-05-05T05:18:00.592Z,100.00
2019-05-05T05:23:05.262Z,100.00
2019-05-05T05:28:10.154Z,100.00
2019-05-05T05:33:14.975Z,100.00
2019-05-05T05:38:24.094Z,100.00
2019-05-05T05:43:28.718Z,100.00
2019-05-05T05:48:34.247Z,100.00
2019-05-05T05:53:39.219Z,100.00
2019-05-05T05:58:45.747Z,100.00
2019-05-05T06:03:50.785Z,100.00
2019-05-05T06:08:56.035Z,100.00
2019-05-05T06:14:04.019Z,100.00
2019-05-05T06:19:10.327Z,100.00
2019-05-05T06:24:14.241Z,100.00
2019-05-05T06:29:18.457Z,100.00
2019-05-05T06:34:24.408Z,100.00
2019-05-05T06:39:29.206Z,100.00
2019-05-05T06:44:34.027Z,100.00
2019-05-05T06:49:39.073Z,100.00
2019-05-05T06:54:43.944Z,100.00
2019-05-05T06:59:48.976Z,100.00
2019-05-05T07:04:54.673Z,100.00
2019-05-05T07:09:59.254Z,100.00
2019-05-05T07:15:06.235Z,100.00
2019-05-05T07:20:13.588Z,100.00
2019-05-05T07:25:19.379Z,100.00
2019-05-05T07:30:24.962Z,100.00
2019-05-05T07:35:29.711Z,100.00
2019-05-05T07:40:35.108Z,100.00
2019-05-05T07:45:39.969Z,100.00
2019-05-05T07:50:58.180Z,100.00
2019-05-05T07:55:54.051Z,100.00
2019-05-05T08:00:58.849Z,100.00
2019-05-05T08:06:04.055Z,100.00
2019-05-05T08:11:09.591Z,100.00
2019-05-05T08:16:15.215Z,100.00
2019-05-05T08:21:21.007Z,100.00
2019-05-05T08:26:34.169Z,100.00
2019-05-05T08:31:39.419Z,100.00
2019-05-05T08:36:44.725Z,100.00
2019-05-05T08:41:49.587Z,100.00
2019-05-05T08:46:54.624Z,100.00
2019-05-05T08:51:59.691Z,100.00
2019-05-05T08:57:04.932Z,100.00
2019-05-05T09:02:09.135Z,100.00
2019-05-05T09:07:14.172Z,100.00
2019-05-05T09:12:20.247Z,99.83
2019-05-05T09:17:28.039Z,100.00
2019-05-05T09:22:32.329Z,95.66
2019-05-05T09:27:37.229Z,95.18
2019-05-05T09:32:43.883Z,92.55
2019-05-05T09:37:48.959Z,85.32
2019-05-05T09:42:54.212Z,84.67
2019-05-05T09:47:59.328Z,88.25
2019-05-05T09:53:04.243Z,100.00
2019-05-05T09:58:10.625Z,100.00
2019-05-05T10:03:14.936Z,99.32
2019-05-05T10:08:20.346Z,95.16
2019-05-05T10:13:26.769Z,88.88
2019-05-05T10:18:35.508Z,86.47
2019-05-05T10:23:40.565Z,70.78
2019-05-05T10:28:45.037Z,72.69
2019-05-05T10:33:50.196Z,93.47
2019-05-05T10:38:56.002Z,97.48
2019-05-05T10:44:03.545Z,100.00
2019-05-05T10:49:08.625Z,85.78
2019-05-05T10:54:14.241Z,71.15
2019-05-05T10:59:18.673Z,83.82
2019-05-05T11:04:24.349Z,97.04
2019-05-05T11:09:31.112Z,86.09
2019-05-05T11:14:35.627Z,94.18
2019-05-05T11:19:41.647Z,96.08
2019-05-05T11:24:57.689Z,89.83
2019-05-05T11:29:54.131Z,95.93
2019-05-05T11:34:59.562Z,88.74
2019-05-05T11:40:04.310Z,81.72
2019-05-05T11:45:08.847Z,79.74
2019-05-05T11:50:13.524Z,74.57
2019-05-05T11:55:17.763Z,71.46
2019-05-05T12:00:24.158Z,78.22
2019-05-05T12:05:29.079Z,86.45
2019-05-05T12:10:34.994Z,73.99
2019-05-05T12:15:40.312Z,78.95
2019-05-05T12:20:46.224Z,66.96
2019-05-05T12:25:56.901Z,77.30
2019-05-05T12:31:01.010Z,84.19
2019-05-05T12:36:06.787Z,76.57
2019-05-05T12:41:11.464Z,77.33
2019-05-05T12:46:17.327Z,85.02
2019-05-05T12:51:23.606Z,72.11
2019-05-05T12:56:29.213Z,72.91
2019-05-05T13:01:37.334Z,65.21
2019-05-05T13:06:44.889Z,61.97
2019-05-05T13:11:48.652Z,64.91
2019-05-05T13:16:56.170Z,58.24
2019-05-05T13:22:01.101Z,70.31
2019-05-05T13:27:10.880Z,64.60
2019-05-05T13:32:14.408Z,78.71
2019-05-05T13:37:19.114Z,65.64
2019-05-05T13:42:24.547Z,63.41
2019-05-05T13:47:29.261Z,64.92
2019-05-05T13:52:34.213Z,63.07
2019-05-05T13:57:39.315Z,64.61
2019-05-05T14:02:44.776Z,80.64
2019-05-05T14:07:49.994Z,82.22
2019-05-05T14:12:54.946Z,88.73
2019-05-05T14:18:00.045Z,87.50
2019-05-05T14:23:05.575Z,82.40
2019-05-05T14:28:09.890Z,74.18
2019-05-05T14:33:15.582Z,66.39
2019-05-05T14:38:23.115Z,79.58
2019-05-05T14:43:27.929Z,83.01
2019-05-05T14:48:34.048Z,79.26
2019-05-05T14:53:39.975Z,74.66
2019-05-05T14:58:44.848Z,85.88
2019-05-05T15:03:49.471Z,87.95
2019-05-05T15:08:54.654Z,94.20
2019-05-05T15:13:59.615Z,100.00
2019-05-05T15:19:04.335Z,95.33
2019-05-05T15:24:10.087Z,100.00
2019-05-05T15:29:14.884Z,96.83
2019-05-05T15:34:20.565Z,88.86
2019-05-05T15:39:25.961Z,100.00
2019-05-05T15:44:30.720Z,96.77
2019-05-05T15:49:37.471Z,100.00
2019-05-05T15:54:42.036Z,100.00
2019-05-05T15:59:47.546Z,98.81
2019-05-05T16:04:54.109Z,91.52
2019-05-05T16:09:58.594Z,99.11
2019-05-05T16:15:04.487Z,98.69
2019-05-05T16:20:09.697Z,98.69
2019-05-05T16:25:15.992Z,92.24
2019-05-05T16:30:23.444Z,89.23
2019-05-05T16:35:48.931Z,83.85
2019-05-05T16:40:53.811Z,90.90
2019-05-05T16:45:58.460Z,92.31
2019-05-05T16:51:04.391Z,96.54
2019-05-05T16:56:14.044Z,96.54
2019-05-05T17:01:18.893Z,97.44
2019-05-05T17:06:24.433Z,100.00
2019-05-05T17:11:29.257Z,100.00
2019-05-05T17:16:35.336Z,100.00
2019-05-05T17:21:40.200Z,100.00
2019-05-05T17:26:44.944Z,100.00
2019-05-05T17:31:49.671Z,100.00
2019-05-05T17:36:54.146Z,100.00
2019-05-05T17:41:58.959Z,100.00
2019-05-05T17:47:04.483Z,100.00
2019-05-05T17:52:10.883Z,100.00
2019-05-05T17:57:16.159Z,100.00
2019-05-05T18:02:20.698Z,100.00
2019-05-05T18:07:25.499Z,100.00
2019-05-05T18:12:34.758Z,100.00
2019-05-05T18:17:39.702Z,100.00
2019-05-05T18:22:47.458Z,100.00
2019-05-05T18:27:52.572Z,100.00
2019-05-05T18:32:57.580Z,100.00
2019-05-05T18:38:04.213Z,100.00
2019-05-05T18:43:09.579Z,100.00
2019-05-05T18:48:14.503Z,100.00
2019-05-05T18:53:19.505Z,100.00
2019-05-05T18:58:29.685Z,100.00
2019-05-05T19:03:31.215Z,100.00
2019-05-05T19:08:35.919Z,100.00
2019-05-05T19:13:41.755Z,100.00
2019-05-05T19:18:47.502Z,100.00
2019-05-05T19:23:54.172Z,100.00
2019-05-05T19:29:02.142Z,100.00
2019-05-05T19:34:05.999Z,100.00
2019-05-05T19:39:11.174Z,100.00
2019-05-05T19:44:16.120Z,100.00
2019-05-05T19:49:21.360Z,100.00
2019-05-05T19:54:26.860Z,100.00
2019-05-05T19:59:31.340Z,100.00
2019-05-05T20:04:35.839Z,100.00
2019-05-05T20:09:45.889Z,100.00
2019-05-05T20:14:50.152Z,100.00
2019-05-05T20:19:54.749Z,100.00
2019-05-05T20:24:59.259Z,100.00
2019-05-05T20:30:07.819Z,100.00
2019-05-05T20:35:18.672Z,100.00
2019-05-05T20:40:24.486Z,100.00
2019-05-05T20:45:30.520Z,100.00
2019-05-05T20:50:40.533Z,100.00
2019-05-05T20:55:47.631Z,100.00
2019-05-05T21:00:54.921Z,100.00
2019-05-05T21:06:00.440Z,100.00
2019-05-05T21:11:04.821Z,100.00
2019-05-05T21:16:09.238Z,100.00
2019-05-05T21:21:24.804Z,100.00
2019-05-05T21:26:29.840Z,100.00
2019-05-05T21:31:36.320Z,100.00
2019-05-05T21:36:41.534Z,100.00
2019-05-05T21:41:46.599Z,100.00
2019-05-05T21:46:53.675Z,100.00
2019-05-05T21:52:08.636Z,100.00
2019-05-05T21:57:14.103Z,100.00
2019-05-05T22:02:19.171Z,100.00
2019-05-05T22:07:24.154Z,100.00
2019-05-05T22:12:29.091Z,100.00
2019-05-05T22:17:33.663Z,100.00
2019-05-05T22:22:49.571Z,100.00
2019-05-05T22:27:54.558Z,100.00
2019-05-05T22:33:10.592Z,100.00
2019-05-05T22:38:18.639Z,100.00
2019-05-05T22:43:34.541Z,100.00
2019-05-05T22:48:40.200Z,100.00
2019-05-05T22:53:44.659Z,100.00
2019-05-05T22:58:59.516Z,100.00
2019-05-05T23:04:04.970Z,100.00
2019-05-05T23:09:21.876Z,100.00
2019-05-05T23:14:26.232Z,100.00
2019-05-05T23:19:36.900Z,100.00
2019-05-05T23:24:44.964Z,100.00
2019-05-05T23:29:49.946Z,100.00
2019-05-05T23:34:54.665Z,100.00
2019-05-05T23:40:00.392Z,100.00
2019-05-05T23:45:13.820Z,100.00
2019-05-05T23:50:25.014Z,100.00
2019-05-05T23:55:29.665Z,100.00
